Hart, Louisiana
Current Conditions -  °F | °C
As of 2:15 AM on Thursday 27 Nov 2014 (Local Time) from KRSN Reporting Station
Clear Clear  
Wind Chill: 42°   Ceiling: Unl
Heat Index: 46°   Visibility: 10mi
Dew Point: 33°   Wind: 6mph
Humidity: 63%   Direction: 320°NW
Pressure: 30.38"   Gusts: NA
Location:  32.0547°N, 92.4144°W
Report Text: KRSN 270815Z AUTO 32005KT 10SM CLR 08/01 A3038 RMK AO2 T00750008
Loading
Personal Weather Stations






























Interactive Weather Map New forecast layout! Learn more

10-Day Weather Forecast

Advertisements
Track Severe Weather on mobile